createdAt,value
2017-08-24T00:15:42.000Z,71.6
2017-08-24T00:32:28.000Z,71.6
2017-08-24T00:49:15.000Z,71.6
2017-08-24T01:22:48.000Z,72.8
2017-08-24T01:39:35.000Z,74.4
2017-08-24T01:56:21.000Z,75.6
2017-08-24T02:13:07.000Z,76.8
2017-08-24T02:29:54.000Z,78
2017-08-24T02:46:40.000Z,78.4
2017-08-24T03:03:25.000Z,78.8
2017-08-24T03:20:12.000Z,79.2
2017-08-24T03:36:57.000Z,79.2
2017-08-24T03:53:43.000Z,79.2
2017-08-24T04:10:28.000Z,79.2
2017-08-24T04:27:15.000Z,79.6
2017-08-24T04:44:00.000Z,79.6
2017-08-24T05:00:45.000Z,79.2
2017-08-24T05:17:30.000Z,79.2
2017-08-24T05:34:15.000Z,78.8
2017-08-24T05:51:02.000Z,79.2
2017-08-24T06:07:47.000Z,78.8
2017-08-24T06:24:33.000Z,78.4
2017-08-24T06:41:20.000Z,78
2017-08-24T06:58:06.000Z,77.6
2017-08-24T07:14:52.000Z,77.2
2017-08-24T07:31:38.000Z,77.6
2017-08-24T07:48:24.000Z,76.8
2017-08-24T08:05:11.000Z,76.4
2017-08-24T08:21:57.000Z,76
2017-08-24T08:38:43.000Z,75.6
2017-08-24T08:45:26.000Z,74.8
2017-08-24T08:58:52.000Z,73.2
2017-08-24T09:15:41.000Z,72
2017-08-24T09:32:29.000Z,70.4
2017-08-24T09:49:17.000Z,69.6
2017-08-24T10:06:06.000Z,67.6
2017-08-24T10:22:56.000Z,68.8
2017-08-24T10:39:45.000Z,67.6
2017-08-24T10:56:34.000Z,66.8
2017-08-24T11:13:24.000Z,66
2017-08-24T11:30:14.000Z,65.6
2017-08-24T11:40:20.000Z,65.2
2017-08-24T11:57:10.000Z,64.8
2017-08-24T12:14:00.000Z,64
2017-08-24T12:30:52.000Z,63.2
2017-08-24T12:47:43.000Z,62.4
2017-08-24T13:04:33.000Z,62.4
2017-08-24T13:21:24.000Z,61.2
2017-08-24T13:38:15.000Z,60
2017-08-24T13:55:07.000Z,59.6
2017-08-24T14:11:58.000Z,58.4
2017-08-24T14:28:49.000Z,58.4
2017-08-24T14:35:34.000Z,56.8
2017-08-24T14:52:26.000Z,56
2017-08-24T15:02:33.000Z,56.4
2017-08-24T15:16:01.000Z,56.4
2017-08-24T15:32:53.000Z,56.8
2017-08-24T15:49:44.000Z,56
2017-08-24T16:06:35.000Z,56
2017-08-24T16:23:25.000Z,56.4
2017-08-24T16:40:16.000Z,56.8
2017-08-24T16:57:07.000Z,56
2017-08-24T17:10:36.000Z,56.8
2017-08-24T17:17:19.000Z,56.8
2017-08-24T17:34:08.000Z,58
2017-08-24T17:50:58.000Z,58.8
2017-08-24T18:07:46.000Z,59.6
2017-08-24T18:21:12.000Z,60.4
2017-08-24T18:38:01.000Z,62
2017-08-24T18:54:48.000Z,62.8
2017-08-24T19:11:35.000Z,63.6
2017-08-24T19:28:22.000Z,64
2017-08-24T19:45:08.000Z,64
2017-08-24T20:01:56.000Z,64.4
2017-08-24T20:18:42.000Z,64.4
2017-08-24T20:35:29.000Z,64.4
2017-08-24T20:52:16.000Z,65.2
2017-08-24T21:09:02.000Z,66
2017-08-24T21:25:48.000Z,67.2
2017-08-24T21:42:33.000Z,68
2017-08-24T21:59:19.000Z,68.8
2017-08-24T22:16:05.000Z,68.8
2017-08-24T22:32:50.000Z,69.6
2017-08-24T22:49:36.000Z,70
2017-08-24T23:06:21.000Z,70.4
2017-08-24T23:23:06.000Z,70.8
2017-08-24T23:39:51.000Z,71.2
2017-08-24T23:56:35.000Z,72
